Time;durP1;ratioP1;P1;durP2;ratioP2;P2;SDS_P1;SDS_P2;PMS_P1;PMS_P2;Temp;Humidity;BMP_temperature;BMP_pressure;BME280_temperature;BME280_humidity;BME280_pressure;Samples;Min_cycle;Max_cycle;Signal;HPM_P1;HPM_P2
2021/08/31 00:00:58;;;;;;;7.08;5.95;;;;;;;14.95;79.42;100557.30;1665365;85;22187;-77
2021/08/31 00:03:24;;;;;;;9.45;7.53;;;;;;;14.91;79.49;100551.34;1669379;85;21105;-77
2021/08/31 00:05:51;;;;;;;7.87;7.22;;;;;;;14.90;79.69;100552.24;1661210;83;21445;-77
2021/08/31 00:08:17;;;;;;;9.25;6.60;;;;;;;14.90;79.75;100549.19;1654170;86;21104;-77
2021/08/31 00:10:43;;;;;;;10.13;7.20;;;;;;;14.91;79.79;100548.73;1654394;86;21543;-77
2021/08/31 00:13:13;;;;;;;9.48;7.12;;;;;;;14.88;79.80;100547.09;1653997;85;21621;-77
2021/08/31 00:15:39;;;;;;;7.47;6.72;;;;;;;14.88;79.93;100547.09;1656535;86;21378;-77
2021/08/31 00:18:05;;;;;;;11.38;7.30;;;;;;;14.87;79.93;100539.33;1656566;86;21320;-77
2021/08/31 00:20:32;;;;;;;12.53;6.92;;;;;;;14.85;79.95;100538.08;1655469;86;21406;-77
2021/08/31 00:22:58;;;;;;;27.40;6.80;;;;;;;14.86;80.08;100538.94;1656531;86;20885;-77
2021/08/31 00:25:24;;;;;;;9.73;6.72;;;;;;;14.85;80.14;100538.53;1655017;86;21068;-77
2021/08/31 00:27:51;;;;;;;8.50;7.47;;;;;;;14.85;80.08;100537.23;1654005;86;21467;-77
2021/08/31 00:30:18;;;;;;;11.53;7.28;;;;;;;14.84;80.23;100534.23;1660613;85;21616;-77
2021/08/31 00:32:44;;;;;;;8.75;7.30;;;;;;;14.86;82.07;100533.73;1654313;86;21071;-77
2021/08/31 00:35:11;;;;;;;8.63;7.83;;;;;;;14.86;82.44;100529.38;1654476;86;21529;-77
2021/08/31 00:37:37;;;;;;;11.85;7.12;;;;;;;14.85;82.63;100531.58;1654352;86;21531;-77
2021/08/31 00:40:05;;;;;;;11.03;8.13;;;;;;;14.85;82.80;100532.03;1654335;86;21061;-77
2021/08/31 00:42:31;;;;;;;12.58;7.25;;;;;;;14.85;82.97;100528.97;1654276;86;21567;-76
2021/08/31 00:44:58;;;;;;;;;;;;;;;14.84;83.06;100533.78;1656674;86;21567;-76
2021/08/31 00:47:25;;;;;;;8.10;7.40;;;;;;;14.80;83.27;100522.23;1654204;86;20456;-76
2021/08/31 00:49:51;;;;;;;9.88;7.85;;;;;;;14.76;83.38;100528.44;1654615;86;21572;-76
2021/08/31 00:52:17;;;;;;;9.85;7.42;;;;;;;14.75;83.58;100531.95;1654755;86;21563;-76
2021/08/31 00:54:46;;;;;;;8.23;7.42;;;;;;;14.73;83.63;100527.24;1654631;86;21076;-76
2021/08/31 00:57:18;;;;;;;9.15;8.20;;;;;;;14.72;83.64;100519.03;1647844;86;21030;-77
2021/08/31 00:59:44;;;;;;;;;;;;;;;14.72;83.70;100526.84;1655469;86;22135;-77
2021/08/31 01:02:10;;;;;;;11.65;6.58;;;;;;;14.71;83.75;100523.39;1642744;85;20248;-77
2021/08/31 01:04:41;;;;;;;9.88;8.25;;;;;;;14.74;83.84;100523.28;1655088;85;21056;-77
2021/08/31 01:07:07;;;;;;;9.78;7.80;;;;;;;14.73;83.87;100517.69;1668195;84;22291;-77
2021/08/31 01:09:35;;;;;;;10.08;8.28;;;;;;;14.75;83.96;100526.28;1669505;84;21553;-77
2021/08/31 01:12:01;;;;;;;8.20;7.40;;;;;;;14.75;83.95;100524.98;1664755;85;21097;-77
2021/08/31 01:14:28;;;;;;;9.38;8.48;;;;;;;14.76;84.06;100526.69;1667614;84;21547;-77
2021/08/31 01:16:55;;;;;;;8.70;7.90;;;;;;;14.77;84.08;100525.78;1667128;84;21525;-77
2021/08/31 01:19:31;;;;;;;8.80;8.00;;;;;;;14.78;84.12;100530.09;1667207;84;21591;-77
2021/08/31 01:21:59;;;;;;;;;;;;;;;14.79;84.14;100534.84;1626805;86;20912;-77
2021/08/31 01:24:25;;;;;;;7.97;7.17;;;;;;;14.81;84.25;100535.64;1661551;85;20095;-77
2021/08/31 01:26:53;;;;;;;11.03;8.73;;;;;;;14.82;84.26;100535.59;1661618;85;21514;-77
2021/08/31 01:29:20;;;;;;;8.63;7.17;;;;;;;14.82;84.28;100536.04;1669783;84;20918;-77
2021/08/31 01:31:46;;;;;;;11.25;8.50;;;;;;;14.82;84.36;100536.89;1661613;85;20899;-77
2021/08/31 01:34:13;;;;;;;8.95;7.37;;;;;;;14.83;84.40;100535.98;1669574;84;20901;-77
2021/08/31 01:36:39;;;;;;;;;;;;;;;14.84;84.44;100538.98;1672256;82;21297;-77
2021/08/31 01:39:06;;;;;;;7.72;7.08;;;;;;;14.84;84.50;100544.19;1664419;84;442379;-77
2021/08/31 01:41:33;;;;;;;9.43;7.45;;;;;;;14.85;84.57;100536.78;1669645;84;20862;-77
2021/08/31 01:43:59;;;;;;;8.95;7.45;;;;;;;14.87;84.57;100531.52;1669411;84;20870;-77
2021/08/31 01:46:25;;;;;;;8.80;7.65;;;;;;;14.85;84.54;100534.18;1669812;84;20902;-77
2021/08/31 01:48:54;;;;;;;12.50;7.95;;;;;;;14.86;84.65;100529.82;1661511;85;20907;-77
2021/08/31 01:51:21;;;;;;;7.90;7.28;;;;;;;14.86;84.68;100529.82;1669893;84;20906;-77
2021/08/31 01:53:47;;;;;;;9.53;8.18;;;;;;;14.88;84.10;100524.11;1669995;84;20870;-77
2021/08/31 01:56:13;;;;;;;8.50;7.80;;;;;;;14.89;84.13;100524.51;1661455;85;20961;-77
2021/08/31 01:58:39;;;;;;;9.98;8.00;;;;;;;14.90;84.09;100527.06;1661926;85;20911;-77
2021/08/31 02:01:06;;;;;;;7.80;6.97;;;;;;;14.74;84.12;100502.46;1642469;86;20878;-77
2021/08/31 02:03:32;;;;;;;7.90;7.10;;;;;;;14.90;84.07;100525.76;1669814;84;21374;-77
2021/08/31 02:05:58;;;;;;;8.93;8.03;;;;;;;14.89;84.12;100521.45;1680232;83;21000;-77
2021/08/31 02:08:26;;;;;;;11.63;7.20;;;;;;;14.88;84.19;100526.27;1673086;84;20912;-77
2021/08/31 02:10:52;;;;;;;8.70;7.90;;;;;;;14.90;84.10;100524.91;1672645;84;20869;-77
2021/08/31 02:13:19;;;;;;;7.03;6.42;;;;;;;14.88;84.07;100524.95;1673128;84;20944;-77
2021/08/31 02:15:45;;;;;;;8.03;7.15;;;;;;;14.87;84.14;100521.11;1672124;84;20995;-77
2021/08/31 02:18:11;;;;;;;9.30;7.37;;;;;;;14.86;84.19;100512.45;1670846;84;21087;-77
2021/08/31 02:20:38;;;;;;;8.20;7.33;;;;;;;14.88;84.43;100517.15;1670485;84;21091;-77
2021/08/31 02:23:04;;;;;;;8.90;6.80;;;;;;;14.88;84.43;100517.15;1670786;84;21646;-77
2021/08/31 02:25:31;;;;;;;8.33;7.28;;;;;;;14.89;84.40;100508.44;1670499;84;21026;-77
2021/08/31 02:27:57;;;;;;;7.50;6.60;;;;;;;14.93;84.47;100512.23;1670402;84;21067;-77
2021/08/31 02:30:24;;;;;;;7.87;6.47;;;;;;;14.93;84.47;100512.23;1671313;84;21051;-77
2021/08/31 02:32:50;;;;;;;8.40;7.60;;;;;;;14.95;84.43;100510.42;1670734;84;21072;-77
2021/08/31 02:35:19;;;;;;;7.58;6.87;;;;;;;14.94;84.48;100508.27;1672689;84;21072;-77
2021/08/31 02:37:45;;;;;;;10.38;7.47;;;;;;;14.96;84.54;100505.62;1684767;84;21142;-77
2021/08/31 02:43:12;;;;;;;8.00;7.30;;;;;;;14.99;84.03;100507.66;1867096;76;22704;-77
2021/08/31 02:45:40;;;;;;;8.45;6.65;;;;;;;14.95;84.54;100506.06;1825491;76;20987;-77
2021/08/31 02:48:06;;;;;;;6.78;6.17;;;;;;;14.95;84.45;100502.61;1829645;77;20951;-77
2021/08/31 02:50:32;;;;;;;7.67;6.95;;;;;;;14.96;84.63;100503.02;1822976;77;21023;-77
2021/08/31 02:52:58;;;;;;;9.80;6.70;;;;;;;14.95;84.72;100503.46;1822339;77;20925;-77
2021/08/31 02:55:25;;;;;;;6.80;6.20;;;;;;;14.97;84.71;100512.52;1825619;76;21082;-77
2021/08/31 02:57:51;;;;;;;7.58;6.80;;;;;;;14.97;84.79;100508.61;1820221;77;21040;-77
2021/08/31 03:00:19;;;;;;;6.62;6.03;;;;;;;14.95;84.77;100503.46;1820839;77;21086;-77
2021/08/31 03:02:47;;;;;;;7.12;6.40;;;;;;;14.97;84.74;100508.61;1800441;77;21025;-77
2021/08/31 03:05:13;;;;;;;7.20;6.60;;;;;;;14.97;84.71;100508.16;1793659;78;20941;-77
2021/08/31 03:07:40;;;;;;;7.15;6.40;;;;;;;14.95;84.74;100513.03;1812786;77;21095;-77
2021/08/31 03:10:14;;;;;;;8.75;5.87;;;;;;;14.97;84.91;100514.67;1775698;78;21083;-77
2021/08/31 03:12:40;;;;;;;6.40;5.90;;;;;;;14.99;84.97;100521.13;1805071;77;21040;-77
2021/08/31 03:15:08;;;;;;;7.30;6.30;;;;;;;14.99;84.98;100512.86;1785657;78;21092;-77
2021/08/31 03:17:33;;;;;;;;;;;;;;;15.01;84.90;100515.41;1800476;78;21054;-77
2021/08/31 03:20:00;;;;;;;7.05;6.45;;;;;;;14.99;85.33;100512.86;1799169;78;20443;-77
2021/08/31 03:22:26;;;;;;;6.45;5.90;;;;;;;14.99;85.03;100522.43;1806826;77;21095;-77
2021/08/31 03:24:52;;;;;;;6.72;6.08;;;;;;;15.00;85.09;100518.47;1792126;78;21103;-77
2021/08/31 03:27:19;;;;;;;6.75;5.50;;;;;;;14.99;85.09;100512.86;1798118;78;21891;-78
2021/08/31 03:29:45;;;;;;;8.28;6.28;;;;;;;15.00;85.07;100514.56;1815051;78;21154;-78
2021/08/31 03:32:12;;;;;;;7.73;6.17;;;;;;;15.00;85.00;100518.92;1794061;78;21139;-78
2021/08/31 03:34:38;;;;;;;12.43;11.10;;;;;;;15.01;85.24;100520.17;1782572;78;21273;-78
2021/08/31 03:37:04;;;;;;;7.55;6.42;;;;;;;15.04;85.20;100516.61;1804029;78;21147;-78
2021/08/31 03:39:31;;;;;;;9.65;7.78;;;;;;;15.03;85.16;100522.27;1807475;78;21397;-78
2021/08/31 03:41:58;;;;;;;10.93;9.18;;;;;;;15.03;85.21;100520.97;1805527;78;20980;-78
2021/08/31 03:44:25;;;;;;;7.87;6.55;;;;;;;15.03;85.19;100524.87;1792936;78;21095;-78
2021/08/31 03:46:51;;;;;;;8.75;6.72;;;;;;;15.05;85.39;100524.37;1791429;78;21028;-78
2021/08/31 03:49:18;;;;;;;9.00;8.10;;;;;;;15.06;85.24;100529.97;1800367;77;21044;-78
2021/08/31 03:51:44;;;;;;;6.75;5.95;;;;;;;15.06;85.34;100528.67;1818426;78;20929;-78
2021/08/31 03:54:10;;;;;;;7.03;6.35;;;;;;;15.08;85.35;100525.98;1806431;77;20980;-78
2021/08/31 03:56:37;;;;;;;7.22;6.53;;;;;;;15.09;85.42;100521.17;1796582;77;21094;-78
2021/08/31 03:59:03;;;;;;;9.80;7.90;;;;;;;15.09;85.31;100523.31;1785593;78;21480;-78
2021/08/31 04:01:29;;;;;;;7.67;6.97;;;;;;;15.10;85.42;100517.66;1801915;78;21032;-78
2021/08/31 04:03:56;;;;;;;8.88;5.97;;;;;;;15.11;85.48;100520.66;1799344;78;21083;-78
2021/08/31 04:06:22;;;;;;;6.92;6.35;;;;;;;15.12;85.48;100519.30;1810000;78;21032;-78
2021/08/31 04:08:55;;;;;;;13.38;9.58;;;;;;;15.11;85.48;100517.61;1762398;79;21093;-78
2021/08/31 04:11:22;;;;;;;8.23;7.42;;;;;;;15.12;85.45;100521.05;1781408;77;21069;-77
2021/08/31 04:13:48;;;;;;;8.85;6.33;;;;;;;15.11;85.53;100512.39;1765033;78;21032;-77
2021/08/31 04:16:16;;;;;;;6.95;5.62;;;;;;;15.12;85.51;100515.39;1777605;78;21034;-77
2021/08/31 04:18:43;;;;;;;7.12;6.45;;;;;;;15.12;85.49;100519.30;1691127;78;586805;-77
2021/08/31 04:21:09;;;;;;;6.87;6.28;;;;;;;15.12;85.54;100515.84;1683046;82;21021;-77
2021/08/31 04:23:36;;;;;;;6.30;5.80;;;;;;;15.12;85.58;100517.15;1699611;82;21067;-77
2021/08/31 04:26:02;;;;;;;6.65;6.00;;;;;;;15.12;85.59;100518.45;1698977;83;21045;-77
2021/08/31 04:28:28;;;;;;;7.80;6.40;;;;;;;15.12;85.64;100518.45;1704486;84;21089;-77
2021/08/31 04:30:56;;;;;;;6.15;5.35;;;;;;;15.11;85.68;100524.12;1693055;82;21036;-79
2021/08/31 04:33:22;;;;;;;6.35;5.40;;;;;;;15.12;85.61;100521.05;1693122;83;21116;-78
2021/08/31 04:35:48;;;;;;;5.95;5.45;;;;;;;15.12;85.67;100518.00;1703031;82;21068;-78
2021/08/31 04:38:17;;;;;;;6.15;5.55;;;;;;;15.12;85.71;100520.61;1695427;83;21056;-78
2021/08/31 04:40:43;;;;;;;6.22;5.22;;;;;;;15.13;85.68;100519.70;1685004;83;21228;-78
2021/08/31 04:43:10;;;;;;;8.78;7.87;;;;;;;15.14;85.75;100527.06;1679114;81;21155;-78
2021/08/31 04:45:37;;;;;;;6.95;6.25;;;;;;;15.16;85.80;100531.31;1689738;83;21011;-78
2021/08/31 04:48:06;;;;;;;7.03;6.12;;;;;;;15.16;85.83;100530.01;1691177;83;21103;-78
2021/08/31 04:50:33;;;;;;;6.65;5.35;;;;;;;15.18;85.78;100526.05;1682246;83;21031;-78
2021/08/31 04:52:59;;;;;;;7.17;5.33;;;;;;;15.17;85.77;100526.50;1694240;83;21007;-78
2021/08/31 04:55:25;;;;;;;5.90;5.40;;;;;;;15.18;85.89;100522.98;1679327;83;21107;-78
2021/08/31 04:57:52;;;;;;;6.20;5.70;;;;;;;15.21;85.86;100522.88;1696010;83;21119;-78
2021/08/31 05:00:18;;;;;;;6.28;5.75;;;;;;;15.23;85.87;100528.88;1689555;83;21119;-78
2021/08/31 05:02:44;;;;;;;6.92;6.20;;;;;;;15.26;85.87;100530.53;1691314;82;20995;-78
2021/08/31 05:05:11;;;;;;;6.62;6.03;;;;;;;15.28;85.89;100541.74;1689260;83;21044;-78
2021/08/31 05:07:39;;;;;;;7.90;6.50;;;;;;;15.31;85.95;100542.93;1700677;82;20987;-78
2021/08/31 05:10:09;;;;;;;6.25;5.50;;;;;;;15.32;85.79;100538.12;1694614;82;21049;-78
2021/08/31 05:12:36;;;;;;;9.03;5.28;;;;;;;15.32;85.83;100539.42;1679394;83;20961;-78
2021/08/31 05:15:04;;;;;;;6.22;5.62;;;;;;;15.33;85.84;100540.27;1684375;83;20986;-78
2021/08/31 05:17:31;;;;;;;8.55;5.40;;;;;;;15.34;85.79;100544.58;1701813;82;20924;-79
2021/08/31 05:19:58;;;;;;;7.92;5.25;;;;;;;15.34;85.80;100538.91;1687682;82;20965;-80
2021/08/31 05:22:27;;;;;;;7.87;5.05;;;;;;;15.36;85.83;100546.22;1697278;82;20982;-80
2021/08/31 05:24:54;;;;;;;5.17;4.70;;;;;;;15.37;85.66;100544.47;1694940;83;21103;-81
2021/08/31 05:27:22;;;;;;;5.28;4.85;;;;;;;15.37;85.68;100549.67;1696307;82;21102;-80
2021/08/31 05:29:50;;;;;;;5.75;5.20;;;;;;;15.38;85.67;100552.22;1696997;82;21039;-80
2021/08/31 05:32:17;;;;;;;6.67;5.30;;;;;;;15.39;85.60;100557.83;1693542;82;21093;-81
2021/08/31 05:34:43;;;;;;;7.95;5.70;;;;;;;15.39;85.50;100548.71;1699063;82;24517;-80
2021/08/31 05:37:10;;;;;;;5.95;5.45;;;;;;;15.41;85.41;100556.02;1697339;82;21130;-80
2021/08/31 05:39:36;;;;;;;6.25;5.72;;;;;;;15.43;85.35;100552.91;1668357;84;21131;-80
2021/08/31 05:42:05;;;;;;;11.93;6.37;;;;;;;15.45;85.26;100556.30;1684734;83;20999;-80
2021/08/31 05:44:33;;;;;;;7.87;5.50;;;;;;;15.47;85.25;100559.70;1686300;82;22165;-80
2021/08/31 05:47:01;;;;;;;6.55;5.95;;;;;;;15.48;85.05;100557.95;1691997;82;20968;-80
2021/08/31 05:49:28;;;;;;;7.20;6.58;;;;;;;15.46;85.04;100558.00;1699860;82;20989;-80
2021/08/31 05:52:07;;;;;;;6.58;6.00;;;;;;;15.47;85.01;100561.01;1691901;83;20950;-79
2021/08/31 05:54:33;;;;;;;8.75;6.58;;;;;;;15.48;84.90;100567.07;1703694;82;21542;-79
2021/08/31 05:57:04;;;;;;;6.93;6.10;;;;;;;15.46;84.91;100563.67;1685987;83;20918;-79
2021/08/31 05:59:29;;;;;;;7.75;6.72;;;;;;;15.46;84.89;100567.13;1670961;84;21203;-78
2021/08/31 06:01:55;;;;;;;7.40;6.80;;;;;;;15.46;84.81;100571.03;1688600;82;21609;-78
2021/08/31 06:04:25;;;;;;;7.50;6.85;;;;;;;15.46;84.86;100571.48;1690056;83;20926;-78
2021/08/31 06:06:50;;;;;;;11.15;7.15;;;;;;;15.46;84.79;100571.48;1706624;82;21400;-79
2021/08/31 06:09:16;;;;;;;7.78;7.15;;;;;;;15.47;84.80;100576.64;1697650;82;21057;-78
2021/08/31 06:11:42;;;;;;;10.40;6.92;;;;;;;15.48;84.84;100582.70;1683192;82;21086;-78
2021/08/31 06:14:09;;;;;;;8.50;7.00;;;;;;;15.49;84.81;100587.02;1680387;82;21128;-78
2021/08/31 06:16:39;;;;;;;7.45;6.70;;;;;;;15.49;84.82;100583.95;1678748;83;21055;-78
2021/08/31 06:19:05;;;;;;;9.73;7.15;;;;;;;15.50;84.77;100580.89;1695022;82;21714;-78
2021/08/31 06:21:32;;;;;;;10.32;6.67;;;;;;;15.51;84.80;100579.98;1700463;82;26526;-78
2021/08/31 06:23:59;;;;;;;8.08;7.28;;;;;;;15.53;84.80;100574.27;1700308;82;21116;-78
2021/08/31 06:26:26;;;;;;;9.33;6.75;;;;;;;15.55;84.78;100571.16;1695703;82;21124;-78
2021/08/31 06:28:52;;;;;;;7.72;6.87;;;;;;;15.58;84.83;100574.98;1669831;84;20968;-78
2021/08/31 06:31:25;;;;;;;7.25;6.55;;;;;;;15.61;84.83;100572.23;1669716;83;287113;-78
2021/08/31 06:33:51;;;;;;;9.28;7.33;;;;;;;15.64;84.77;100573.88;1678592;83;21049;-79
2021/08/31 06:36:21;;;;;;;8.63;7.42;;;;;;;15.68;84.86;100577.61;1673781;83;21148;-79
2021/08/31 06:38:47;;;;;;;8.03;7.30;;;;;;;15.71;84.85;100577.95;1680559;83;21077;-79
2021/08/31 06:41:13;;;;;;;11.60;7.50;;;;;;;15.74;84.81;100576.53;1668801;84;20958;-81
2021/08/31 06:43:41;;;;;;;8.30;7.60;;;;;;;15.76;84.78;100576.02;1676819;84;20887;-82
2021/08/31 06:46:08;;;;;;;8.20;7.40;;;;;;;15.76;84.74;100576.87;1671679;84;21088;-84
2021/08/31 06:48:34;;;;;;;8.08;7.28;;;;;;;15.79;84.72;100574.59;1668878;84;21010;-79
2021/08/31 06:51:00;;;;;;;8.08;7.25;;;;;;;15.81;84.79;100580.15;1653311;85;21470;-83
2021/08/31 06:53:27;;;;;;;8.05;7.28;;;;;;;15.87;84.85;100576.46;1659316;84;21033;-85
2021/08/31 06:55:53;;;;;;;8.73;7.30;;;;;;;15.96;84.75;100575.26;1675382;84;20995;-84
2021/08/31 06:58:19;;;;;;;8.28;7.42;;;;;;;16.03;84.83;100581.94;1670269;84;21021;-85
2021/08/31 07:00:46;;;;;;;10.45;7.53;;;;;;;16.08;84.77;100576.09;1670703;84;21010;-86
2021/08/31 07:03:12;;;;;;;8.30;7.50;;;;;;;16.11;84.77;100578.58;1673653;84;20998;-86
2021/08/31 07:05:38;;;;;;;9.75;7.55;;;;;;;16.16;84.80;100576.60;1668573;84;20906;-86
2021/08/31 07:08:05;;;;;;;8.18;7.37;;;;;;;16.19;84.71;100583.00;1663472;84;20959;-86
2021/08/31 07:10:31;;;;;;;8.68;7.90;;;;;;;16.22;84.74;100580.27;1668297;84;26356;-85
2021/08/31 07:12:58;;;;;;;8.13;7.37;;;;;;;16.23;84.72;100589.34;1670459;84;20879;-84
2021/08/31 07:15:24;;;;;;;8.20;7.50;;;;;;;16.23;84.62;100591.95;1677485;83;21042;-81
2021/08/31 07:17:50;;;;;;;7.47;6.78;;;;;;;16.23;84.65;100598.48;1679575;83;20974;-79
2021/08/31 07:20:18;;;;;;;7.58;6.87;;;;;;;16.24;84.69;100590.20;1676572;84;20894;-79
2021/08/31 07:22:45;;;;;;;13.32;7.95;;;;;;;16.23;84.68;100591.95;1679312;83;20978;-79
2021/08/31 07:25:11;;;;;;;7.45;6.83;;;;;;;16.24;84.67;100592.80;1663980;84;20995;-78
2021/08/31 07:27:39;;;;;;;8.43;7.45;;;;;;;16.23;84.65;100598.94;1657729;83;20922;-79
2021/08/31 07:30:07;;;;;;;9.10;6.47;;;;;;;16.23;84.72;100599.78;1671509;84;21065;-78
2021/08/31 07:32:34;;;;;;;7.92;7.22;;;;;;;16.23;84.72;100596.33;1648422;84;21029;-80
2021/08/31 07:35:00;;;;;;;9.48;6.80;;;;;;;16.22;84.63;100601.15;1677559;84;20985;-79
2021/08/31 07:37:27;;;;;;;7.87;6.83;;;;;;;16.22;84.69;100603.76;1675544;83;21480;-80
2021/08/31 07:39:53;;;;;;;7.95;7.15;;;;;;;16.21;84.70;100604.21;1665592;84;20906;-79
2021/08/31 07:42:20;;;;;;;9.00;7.63;;;;;;;16.20;84.71;100606.43;1681227;83;21000;-81
2021/08/31 07:44:46;;;;;;;10.45;7.50;;;;;;;16.20;84.79;100609.49;1667398;83;21326;-80
2021/08/31 07:47:13;;;;;;;7.97;7.17;;;;;;;16.22;84.74;100605.06;1678577;84;20906;-81
2021/08/31 07:49:39;;;;;;;8.93;7.50;;;;;;;16.22;84.79;100603.30;1676242;83;20927;-82
2021/08/31 07:52:08;;;;;;;8.10;7.30;;;;;;;16.24;84.76;100605.85;1672353;84;20934;-81
2021/08/31 07:54:34;;;;;;;9.28;7.00;;;;;;;16.25;84.75;100610.16;1678841;83;21506;-80
2021/08/31 07:57:04;;;;;;;10.90;6.85;;;;;;;16.27;84.76;100617.93;1676087;84;20958;-79
2021/08/31 07:59:30;;;;;;;9.10;7.20;;;;;;;16.26;84.70;100615.77;1677676;83;21097;-80
2021/08/31 08:01:56;;;;;;;6.80;6.20;;;;;;;16.30;84.76;100616.50;1676151;83;21086;-82
2021/08/31 08:04:23;;;;;;;8.25;7.45;;;;;;;16.32;84.75;100612.08;1678132;84;20918;-82
2021/08/31 08:06:49;;;;;;;7.97;7.20;;;;;;;16.34;84.71;100619.39;1681446;83;20972;-79
2021/08/31 08:09:16;;;;;;;7.97;7.20;;;;;;;16.38;84.81;100619.20;1659936;84;21105;-79
2021/08/31 08:11:42;;;;;;;8.90;7.20;;;;;;;16.41;84.81;100619.08;1673611;83;21538;-79
2021/08/31 08:14:09;;;;;;;8.00;7.28;;;;;;;16.43;84.74;100621.63;1675032;84;21025;-78
2021/08/31 08:16:35;;;;;;;9.15;7.05;;;;;;;16.45;84.70;100622.42;1670044;84;21101;-79
2021/08/31 08:19:04;;;;;;;12.93;8.25;;;;;;;16.44;84.73;100628.55;1671442;83;21605;-78
2021/08/31 08:21:30;;;;;;;9.18;7.42;;;;;;;16.43;84.72;100632.92;1668307;84;21113;-78
2021/08/31 08:23:57;;;;;;;13.65;7.80;;;;;;;16.43;84.70;100632.08;1677998;83;21041;-78
2021/08/31 08:26:23;;;;;;;7.95;7.25;;;;;;;16.42;84.75;100628.61;1668672;84;21025;-78
2021/08/31 08:28:49;;;;;;;12.70;7.28;;;;;;;16.42;84.77;100632.53;1679193;83;21002;-79
2021/08/31 08:31:18;;;;;;;8.75;7.25;;;;;;;16.40;84.73;100629.12;1676365;83;21017;-78
2021/08/31 08:33:44;;;;;;;10.30;6.97;;;;;;;16.41;84.78;100628.67;1677011;83;21061;-79
2021/08/31 08:36:10;;;;;;;8.83;7.58;;;;;;;16.42;84.79;100630.37;1674142;84;21359;-79
2021/08/31 08:38:37;;;;;;;11.78;7.65;;;;;;;16.42;84.75;100626.00;1658903;84;21586;-80
2021/08/31 08:41:06;;;;;;;12.37;7.60;;;;;;;16.42;84.73;100627.77;1676683;83;21562;-80
2021/08/31 08:43:34;;;;;;;8.18;6.78;;;;;;;16.41;84.81;100636.05;1679951;83;21443;-80
2021/08/31 08:46:06;;;;;;;8.78;7.35;;;;;;;16.43;84.81;100634.69;1672950;84;21145;-80
2021/08/31 08:48:34;;;;;;;8.25;6.97;;;;;;;16.43;84.78;100643.81;1664301;84;20963;-80
2021/08/31 08:51:06;;;;;;;7.87;6.92;;;;;;;16.42;84.76;100646.03;1661558;84;20994;-80
2021/08/31 08:53:34;;;;;;;8.85;7.30;;;;;;;16.42;84.81;100645.58;1666068;83;21408;-80
2021/08/31 08:56:01;;;;;;;10.80;8.23;;;;;;;16.45;84.87;100644.16;1673834;84;20924;-80
2021/08/31 08:58:33;;;;;;;11.38;6.92;;;;;;;16.46;84.83;100644.55;1632870;83;21477;-80
2021/08/31 09:01:04;;;;;;;9.38;6.70;;;;;;;16.47;84.84;100639.72;1672555;83;21067;-80
2021/08/31 09:03:40;;;;;;;10.68;7.60;;;;;;;16.49;84.79;100652.26;1674207;84;21392;-80
2021/08/31 09:06:16;;;;;;;7.47;6.75;;;;;;;16.51;84.87;100649.59;1680845;83;21564;-78
2021/08/31 09:11:49;;;;;;;8.10;6.72;;;;;;;16.55;84.82;100646.80;1502990;92;21918;-82
2021/08/31 09:14:32;;;;;;;8.58;6.45;;;;;;;16.57;84.76;100645.88;1521903;91;21644;-82
2021/08/31 09:17:01;;;;;;;9.23;6.80;;;;;;;16.58;84.80;100641.05;1510080;93;21053;-82
2021/08/31 09:19:37;;;;;;;8.70;7.03;;;;;;;16.60;84.77;100653.59;1507432;92;21618;-82
2021/08/31 09:22:17;;;;;;;9.28;6.78;;;;;;;16.60;84.80;100649.22;1516474;92;21514;-82
2021/08/31 09:25:09;;;;;;;9.35;6.58;;;;;;;16.62;84.83;100652.62;1508438;92;21714;-82
2021/08/31 09:27:39;;;;;;;8.88;6.70;;;;;;;16.65;84.82;100655.56;1502532;93;21502;-81
2021/08/31 09:30:20;;;;;;;10.40;6.15;;;;;;;16.66;84.82;100652.04;1519960;92;21008;-82
2021/08/31 09:33:08;;;;;;;9.93;6.70;;;;;;;16.66;84.79;100651.59;1517408;92;21011;-82
2021/08/31 09:35:40;;;;;;;9.83;7.30;;;;;;;16.70;84.83;100651.86;1519372;92;21916;-82
2021/08/31 09:38:15;;;;;;;13.75;6.12;;;;;;;16.76;84.87;100655.98;1521263;92;21608;-82
2021/08/31 09:40:47;;;;;;;7.58;6.35;;;;;;;16.79;84.84;100646.72;1514569;92;21515;-83
2021/08/31 09:43:17;;;;;;;7.00;6.25;;;;;;;16.81;84.81;100652.27;1509565;92;21062;-83
2021/08/31 09:45:50;;;;;;;10.32;6.50;;;;;;;16.82;84.74;100662.26;1501635;93;21646;-83
2021/08/31 09:48:19;;;;;;;7.87;6.40;;;;;;;16.82;84.76;100660.95;1545378;85;20962;-82
2021/08/31 09:50:53;;;;;;;8.05;6.58;;;;;;;16.82;84.74;100655.73;1680134;83;21493;-81
2021/08/31 09:53:23;;;;;;;7.90;7.12;;;;;;;16.85;84.81;100658.22;1683143;83;21109;-81
2021/08/31 09:56:06;;;;;;;10.95;6.67;;;;;;;16.88;84.80;100663.31;1671187;83;21632;-81
2021/08/31 09:58:37;;;;;;;9.40;6.05;;;;;;;16.90;84.77;100668.48;1664798;83;21670;-81
2021/08/31 10:01:04;;;;;;;10.72;6.33;;;;;;;16.90;84.71;100671.94;1673623;84;21454;-81
2021/08/31 10:03:31;;;;;;;9.60;6.90;;;;;;;16.91;84.72;100678.02;1668517;83;21527;-82
2021/08/31 10:06:00;;;;;;;8.48;6.45;;;;;;;16.92;84.71;100674.48;1671402;84;21149;-82
2021/08/31 10:08:34;;;;;;;10.08;6.37;;;;;;;16.90;84.65;100677.16;1683608;83;21441;-82
2021/08/31 10:11:03;;;;;;;13.45;6.80;;;;;;;16.88;84.67;100684.20;1671622;83;21062;-83
2021/08/31 10:13:33;;;;;;;7.20;5.87;;;;;;;16.87;84.63;100685.13;1666452;84;21728;-83
2021/08/31 10:16:00;;;;;;;6.65;6.00;;;;;;;16.86;84.64;100682.12;1681215;83;21125;-82
2021/08/31 10:18:30;;;;;;;7.55;6.67;;;;;;;16.85;84.62;100681.72;1676682;83;22559;-82
2021/08/31 10:21:10;;;;;;;10.45;7.35;;;;;;;16.85;84.65;100686.48;1674509;84;21051;-82
2021/08/31 10:23:41;;;;;;;7.67;6.70;;;;;;;16.87;84.68;100692.95;1680281;83;21687;-82
2021/08/31 10:26:31;;;;;;;7.10;6.42;;;;;;;16.87;84.66;100690.34;1684978;83;21068;-82
2021/08/31 10:29:23;;;;;;;7.53;6.28;;;;;;;16.90;84.71;100693.29;1675151;82;21662;-82
2021/08/31 10:31:52;;;;;;;6.87;6.17;;;;;;;16.90;84.71;100695.90;1587088;83;5000327;-82
2021/08/31 10:34:39;;;;;;;7.78;6.50;;;;;;;16.91;84.73;100699.76;1622251;85;21822;-82
2021/08/31 10:37:17;;;;;;;9.75;6.67;;;;;;;16.92;84.71;100700.61;1620207;86;21456;-82
2021/08/31 10:39:57;;;;;;;9.75;7.20;;;;;;;16.91;84.66;100705.44;1618466;85;21596;-82
2021/08/31 10:42:35;;;;;;;8.30;6.67;;;;;;;16.90;84.67;100703.73;1583072;86;21518;-82
2021/08/31 10:45:06;;;;;;;10.95;7.30;;;;;;;16.88;84.68;100707.27;1623606;85;21884;-82
2021/08/31 10:47:39;;;;;;;9.35;7.10;;;;;;;16.88;84.66;100714.25;1618677;86;21006;-82
2021/08/31 10:50:14;;;;;;;11.53;7.25;;;;;;;16.87;84.68;100718.63;1618943;85;21581;-82
2021/08/31 10:53:03;;;;;;;9.10;7.05;;;;;;;16.87;84.71;100721.69;1507731;86;10000940;-82
2021/08/31 10:55:34;;;;;;;8.78;6.67;;;;;;;16.87;84.74;100719.92;1628759;85;21086;-82
2021/08/31 10:58:04;;;;;;;11.78;7.95;;;;;;;16.88;84.73;100719.47;1623804;85;21757;-82
2021/08/31 11:00:43;;;;;;;9.05;7.20;;;;;;;16.87;84.67;100718.63;1621427;85;21379;-82
2021/08/31 11:03:10;;;;;;;8.15;7.22;;;;;;;16.87;84.62;100732.14;1507905;85;10000543;-82
2021/08/31 11:05:39;;;;;;;8.85;7.17;;;;;;;16.86;84.60;100727.82;1633139;86;21392;-82
2021/08/31 11:08:10;;;;;;;10.28;6.95;;;;;;;16.87;84.64;100732.98;1591878;87;21401;-82
2021/08/31 11:10:42;;;;;;;7.12;6.35;;;;;;;16.91;84.66;100726.33;1635974;85;20999;-82
2021/08/31 11:13:21;;;;;;;8.30;7.25;;;;;;;16.96;84.69;100729.61;1652747;85;20872;-82
2021/08/31 11:15:48;;;;;;;10.28;6.80;;;;;;;16.99;84.62;100734.71;1630632;85;22000;-82
2021/08/31 11:18:22;;;;;;;13.75;7.50;;;;;;;17.01;84.60;100731.13;1636999;85;20933;-82
2021/08/31 11:20:46;;;;;;;9.75;6.80;;;;;;;17.03;84.58;100733.67;1584137;87;21367;-82
2021/08/31 11:23:17;;;;;;;9.50;7.20;;;;;;;17.05;84.62;100737.08;1624951;85;20971;-82
2021/08/31 11:26:02;;;;;;;9.45;6.95;;;;;;;17.06;84.60;100735.70;1615779;86;21073;-82
2021/08/31 11:28:28;;;;;;;8.65;7.72;;;;;;;17.08;84.59;100746.09;1617687;85;21410;-82
2021/08/31 11:30:58;;;;;;;8.53;7.45;;;;;;;17.10;84.66;100742.97;1621654;85;20983;-81
2021/08/31 11:33:28;;;;;;;10.58;7.20;;;;;;;17.13;84.69;100738.92;1614450;86;21589;-82
2021/08/31 11:36:01;;;;;;;9.78;7.42;;;;;;;17.12;84.67;100743.30;1618304;86;21084;-82